Time;durP1;ratioP1;P1;durP2;ratioP2;P2;SDS_P1;SDS_P2;PMS_P1;PMS_P2;Temp;Humidity;BMP_temperature;BMP_pressure;BME280_temperature;BME280_humidity;BME280_pressure;Samples;Min_cycle;Max_cycle;Signal;HPM_P1;HPM_P2
2023/03/08 00:01:02;;;;;;;24.95;13.10;;;7.90;98.10;;;;;;4968435;28;20347;-73
2023/03/08 00:03:27;;;;;;;25.15;12.90;;;7.80;98.00;;;;;;4968602;28;20568;-73
2023/03/08 00:05:53;;;;;;;29.08;13.43;;;7.80;98.10;;;;;;4972616;28;20030;-73
2023/03/08 00:08:19;;;;;;;25.10;12.98;;;7.80;98.10;;;;;;4970300;28;20034;-72
2023/03/08 00:10:45;;;;;;;23.98;13.00;;;7.70;98.20;;;;;;4969917;28;20117;-73
2023/03/08 00:13:11;;;;;;;23.77;13.43;;;7.70;98.30;;;;;;4980569;28;20113;-72
2023/03/08 00:15:37;;;;;;;24.80;12.98;;;7.50;98.60;;;;;;4971853;28;20508;-72
2023/03/08 00:18:04;;;;;;;28.02;12.43;;;7.40;98.80;;;;;;4976671;28;20077;-72
2023/03/08 00:20:30;;;;;;;25.50;13.82;;;7.20;98.60;;;;;;4972889;28;20186;-72
2023/03/08 00:22:55;;;;;;;22.85;11.32;;;7.10;98.80;;;;;;4974961;28;20109;-72
2023/03/08 00:25:21;;;;;;;26.55;14.07;;;7.20;99.00;;;;;;4978084;28;20568;-72
2023/03/08 00:27:47;;;;;;;26.88;12.55;;;7.30;98.90;;;;;;4980203;28;20035;-72
2023/03/08 00:30:13;;;;;;;24.75;13.50;;;7.30;98.80;;;;;;4974753;28;20035;-72
2023/03/08 00:32:39;;;;;;;23.08;12.68;;;7.20;99.00;;;;;;4975221;28;20173;-72
2023/03/08 00:35:05;;;;;;;29.13;14.00;;;7.20;99.00;;;;;;4973117;28;20038;-72
2023/03/08 00:37:31;;;;;;;33.17;14.18;;;7.10;99.10;;;;;;4971716;28;20485;-72
2023/03/08 00:39:57;;;;;;;26.50;13.35;;;7.20;99.10;;;;;;4973538;28;20126;-73
2023/03/08 00:42:23;;;;;;;29.23;13.02;;;7.20;99.10;;;;;;4979397;28;20481;-72
2023/03/08 00:44:49;;;;;;;26.30;13.63;;;7.30;99.00;;;;;;4974990;28;20034;-72
2023/03/08 00:47:15;;;;;;;29.52;12.70;;;7.40;98.80;;;;;;4981565;28;20035;-73
2023/03/08 00:49:41;;;;;;;27.17;12.57;;;7.30;98.90;;;;;;4982598;28;20139;-72
2023/03/08 00:52:07;;;;;;;20.52;11.32;;;7.20;99.20;;;;;;4980815;28;20038;-72
2023/03/08 00:54:33;;;;;;;25.73;12.50;;;7.10;99.30;;;;;;4975961;28;20027;-73
2023/03/08 00:56:58;;;;;;;26.17;13.93;;;7.00;99.40;;;;;;4974702;28;20031;-72
2023/03/08 00:59:24;;;;;;;25.58;13.43;;;6.90;99.60;;;;;;4975024;28;20061;-72
2023/03/08 01:01:50;;;;;;;23.38;12.00;;;6.90;99.70;;;;;;4975280;28;20053;-73
2023/03/08 01:04:16;;;;;;;22.48;11.77;;;6.90;99.50;;;;;;4974422;28;20114;-72
2023/03/08 01:06:42;;;;;;;21.08;10.85;;;7.00;99.40;;;;;;4974372;28;20113;-72
2023/03/08 01:09:09;;;;;;;23.92;11.07;;;6.90;99.40;;;;;;4980815;28;20477;-73
2023/03/08 01:11:36;;;;;;;23.60;10.93;;;6.90;99.60;;;;;;4979571;28;20023;-72
2023/03/08 01:14:03;;;;;;;27.83;12.35;;;6.90;99.50;;;;;;4975387;28;20121;-72
2023/03/08 01:16:31;;;;;;;23.30;14.13;;;6.90;99.50;;;;;;4979929;28;20558;-72
2023/03/08 01:18:57;;;;;;;22.00;11.77;;;6.80;99.70;;;;;;4982198;28;20039;-72
2023/03/08 01:21:24;;;;;;;27.58;13.35;;;6.80;99.60;;;;;;4975063;28;20030;-72
2023/03/08 01:23:50;;;;;;;25.55;12.00;;;6.70;99.80;;;;;;4972972;28;20097;-72
2023/03/08 01:26:19;;;;;;;26.88;13.00;;;6.70;99.80;;;;;;4972971;28;20052;-72
2023/03/08 01:28:45;;;;;;;30.92;13.82;;;6.70;99.90;;;;;;4976872;28;20022;-72
2023/03/08 01:31:13;;;;;;;24.23;12.90;;;6.70;99.80;;;;;;4979948;28;20035;-72
2023/03/08 01:33:39;;;;;;;27.70;13.07;;;6.60;99.90;;;;;;4972207;28;20501;-73
2023/03/08 01:36:07;;;;;;;22.90;12.52;;;6.60;99.90;;;;;;4981755;28;20190;-72
2023/03/08 01:38:33;;;;;;;24.05;13.02;;;6.50;99.90;;;;;;4977360;28;20026;-72
2023/03/08 01:41:00;;;;;;;24.60;11.60;;;6.40;99.90;;;;;;4973886;28;20033;-72
2023/03/08 01:43:29;;;;;;;27.02;14.10;;;6.40;99.90;;;;;;4981551;28;20041;-72
2023/03/08 01:46:27;;;;;;;25.50;12.00;;;6.60;99.90;;;;;;4980808;28;20037;-72
2023/03/08 01:49:07;;;;;;;26.98;12.65;;;6.60;99.90;;;;;;4972017;28;20108;-72
2023/03/08 01:51:35;;;;;;;24.52;13.07;;;6.60;99.90;;;;;;4972172;28;20031;-72
2023/03/08 01:54:07;;;;;;;26.75;12.95;;;6.70;99.90;;;;;;4973597;28;20113;-72
2023/03/08 01:56:34;;;;;;;27.02;13.63;;;6.60;99.90;;;;;;4975150;28;20034;-72
2023/03/08 01:59:00;;;;;;;25.75;14.10;;;6.60;99.90;;;;;;4972028;28;20506;-72
2023/03/08 02:01:26;;;;;;;26.00;12.65;;;6.60;99.90;;;;;;4972472;28;20033;-72
2023/03/08 02:03:52;;;;;;;23.35;12.13;;;6.60;99.90;;;;;;4973470;28;20023;-72
2023/03/08 02:06:19;;;;;;;23.50;12.25;;;6.60;99.90;;;;;;4971937;28;20169;-73
2023/03/08 02:08:45;;;;;;;20.88;11.82;;;6.40;99.90;;;;;;4976046;28;20027;-72
2023/03/08 02:11:13;;;;;;;22.00;11.50;;;6.30;99.90;;;;;;4971696;28;20027;-72
2023/03/08 02:13:38;;;;;;;18.40;10.65;;;6.50;99.90;;;;;;4971808;28;20127;-72
2023/03/08 02:16:08;;;;;;;25.50;12.32;;;6.30;99.90;;;;;;4980180;28;20034;-72
2023/03/08 02:18:34;;;;;;;18.15;9.88;;;6.20;99.90;;;;;;4977911;28;20584;-72
2023/03/08 02:21:00;;;;;;;18.13;9.60;;;6.30;99.90;;;;;;4974042;28;20118;-72
2023/03/08 02:23:26;;;;;;;20.33;11.68;;;6.20;99.90;;;;;;4973291;28;20030;-72
2023/03/08 02:25:59;;;;;;;22.23;11.90;;;6.10;99.90;;;;;;4974544;28;20481;-72
2023/03/08 02:28:26;;;;;;;23.77;12.82;;;6.30;99.90;;;;;;4971945;28;20047;-72
2023/03/08 02:30:52;;;;;;;24.85;12.00;;;6.30;99.90;;;;;;4969171;28;20045;-72
2023/03/08 02:33:18;;;;;;;27.27;12.13;;;6.20;99.90;;;;;;4974353;28;20740;-72
2023/03/08 02:35:44;;;;;;;21.75;12.13;;;6.30;99.90;;;;;;4971429;28;20038;-72
2023/03/08 02:38:12;;;;;;;20.65;10.90;;;6.20;99.90;;;;;;4979333;28;20027;-72
2023/03/08 02:40:39;;;;;;;20.33;11.38;;;5.90;99.90;;;;;;4969934;28;20429;-72
2023/03/08 02:43:04;;;;;;;20.58;11.38;;;5.80;99.90;;;;;;4968887;28;20045;-72
2023/03/08 02:45:32;;;;;;;25.30;11.80;;;5.90;99.90;;;;;;4979957;28;20035;-72
2023/03/08 02:47:59;;;;;;;22.95;12.68;;;6.00;99.90;;;;;;4970131;28;20114;-72
2023/03/08 02:50:25;;;;;;;24.05;11.77;;;6.00;99.90;;;;;;4970293;28;20097;-72
2023/03/08 02:52:51;;;;;;;24.58;12.88;;;6.00;99.90;;;;;;4971929;28;20039;-72
2023/03/08 02:55:16;;;;;;;21.38;11.70;;;6.10;99.90;;;;;;4978491;28;20393;-72
2023/03/08 02:57:42;;;;;;;25.70;12.48;;;6.10;99.90;;;;;;4984960;28;20035;-72
2023/03/08 03:00:09;;;;;;;26.95;13.38;;;6.10;99.90;;;;;;4967890;28;20553;-72
2023/03/08 03:02:34;;;;;;;20.70;11.52;;;6.10;99.90;;;;;;4971291;28;20030;-72
2023/03/08 03:05:03;;;;;;;25.50;12.50;;;5.90;99.90;;;;;;4977853;28;20409;-72
2023/03/08 03:07:29;;;;;;;26.60;12.00;;;5.90;99.90;;;;;;4972141;28;20044;-72
2023/03/08 03:09:54;;;;;;;23.83;12.32;;;5.80;99.90;;;;;;4973070;28;20118;-72
2023/03/08 03:12:20;;;;;;;20.60;10.35;;;6.10;99.90;;;;;;4976857;28;20416;-72
2023/03/08 03:14:46;;;;;;;23.73;11.38;;;5.70;99.90;;;;;;4972882;28;20514;-72
2023/03/08 03:17:11;;;;;;;23.48;12.02;;;5.50;99.90;;;;;;4970751;28;20074;-72
2023/03/08 03:19:37;;;;;;;21.15;11.07;;;5.60;99.90;;;;;;4972688;28;20049;-72
2023/03/08 03:22:03;;;;;;;26.45;12.80;;;5.80;99.90;;;;;;4983485;28;20069;-72
2023/03/08 03:24:29;;;;;;;20.48;11.82;;;5.90;99.90;;;;;;4977804;28;20043;-72
2023/03/08 03:26:54;;;;;;;23.60;11.40;;;6.00;99.90;;;;;;4975882;28;20031;-72
2023/03/08 03:29:21;;;;;;;26.25;12.52;;;6.00;99.90;;;;;;4978821;28;20037;-72
2023/03/08 03:31:47;;;;;;;24.73;13.50;;;6.10;99.90;;;;;;4978133;28;20035;-72
2023/03/08 03:34:13;;;;;;;24.25;12.98;;;6.00;99.90;;;;;;4970186;28;20039;-72
2023/03/08 03:36:38;;;;;;;20.63;11.25;;;6.00;99.90;;;;;;4972925;28;20432;-72
2023/03/08 03:39:05;;;;;;;25.00;11.80;;;5.90;99.90;;;;;;4981730;28;20560;-72
2023/03/08 03:41:30;;;;;;;29.00;12.77;;;5.90;99.90;;;;;;4973195;28;20030;-72
2023/03/08 03:43:57;;;;;;;25.98;12.43;;;5.80;99.90;;;;;;4970623;28;20077;-72
2023/03/08 03:46:22;;;;;;;24.60;12.57;;;5.80;99.90;;;;;;4970189;28;20027;-72
2023/03/08 03:48:48;;;;;;;24.80;13.88;;;5.70;99.90;;;;;;4971951;28;20046;-72
2023/03/08 03:51:19;;;;;;;22.17;12.27;;;5.70;99.90;;;;;;4983399;28;20031;-72
2023/03/08 03:53:46;;;;;;;26.63;13.00;;;5.70;99.90;;;;;;4975553;28;20018;-72
2023/03/08 03:56:20;;;;;;;22.70;13.52;;;5.60;99.90;;;;;;4973667;28;20196;-72
2023/03/08 03:58:47;;;;;;;21.75;11.38;;;5.60;99.90;;;;;;4969613;28;20070;-72
2023/03/08 04:01:27;;;;;;;27.65;11.32;;;5.60;99.90;;;;;;4976860;28;20397;-72
2023/03/08 04:03:54;;;;;;;24.42;11.80;;;5.60;99.90;;;;;;4965456;28;20043;-73
2023/03/08 04:06:23;;;;;;;25.02;11.43;;;5.60;99.90;;;;;;4966243;28;20109;-72
2023/03/08 04:08:52;;;;;;;27.08;12.10;;;5.60;99.90;;;;;;4966638;28;20026;-72
2023/03/08 04:11:20;;;;;;;26.17;11.80;;;5.70;99.90;;;;;;4971752;28;20030;-73
2023/03/08 04:13:46;;;;;;;20.45;12.32;;;6.10;99.90;;;;;;4964871;28;20027;-72
2023/03/08 04:16:15;;;;;;;20.65;11.68;;;6.00;99.90;;;;;;4972836;28;20097;-72
2023/03/08 04:18:41;;;;;;;22.42;11.90;;;5.80;99.90;;;;;;4965378;28;20441;-72
2023/03/08 04:21:07;;;;;;;24.38;11.40;;;5.80;99.90;;;;;;4971281;28;20034;-73
2023/03/08 04:23:34;;;;;;;20.80;11.27;;;5.80;99.90;;;;;;4970643;28;20038;-72
2023/03/08 04:26:00;;;;;;;25.48;11.38;;;5.70;99.90;;;;;;4966846;28;20026;-73
2023/03/08 04:28:26;;;;;;;26.40;11.07;;;5.70;99.90;;;;;;4971076;28;20037;-72
2023/03/08 04:30:52;;;;;;;20.52;11.60;;;5.50;99.90;;;;;;4968673;28;20030;-72
2023/03/08 04:33:20;;;;;;;19.40;9.48;;;5.50;99.90;;;;;;4969236;28;20094;-72
2023/03/08 04:35:45;;;;;;;23.25;10.88;;;5.20;99.90;;;;;;4977430;28;20033;-72
2023/03/08 04:38:11;;;;;;;29.67;13.23;;;5.10;99.90;;;;;;4972380;28;20026;-73
2023/03/08 04:41:00;;;;;;;21.52;11.50;;;5.50;99.90;;;;;;4965050;28;20122;-72
2023/03/08 04:43:23;;;;;;;25.58;11.00;;;5.50;99.90;;;;;;4972436;28;20043;-72
2023/03/08 04:45:49;;;;;;;24.23;11.40;;;5.60;99.90;;;;;;4974268;28;20455;-73
2023/03/08 04:48:15;;;;;;;27.13;11.98;;;5.70;99.90;;;;;;4965086;28;20126;-73
2023/03/08 04:50:41;;;;;;;25.17;12.48;;;5.80;99.90;;;;;;4972760;28;20505;-72
2023/03/08 04:53:07;;;;;;;21.90;11.95;;;5.90;99.90;;;;;;4971958;28;20034;-72
2023/03/08 04:55:35;;;;;;;23.10;12.15;;;5.80;99.90;;;;;;4968172;28;20026;-72
2023/03/08 04:58:01;;;;;;;27.20;12.15;;;5.80;99.90;;;;;;4967937;28;21099;-72
2023/03/08 05:00:26;;;;;;;21.55;11.32;;;5.90;99.90;;;;;;4967297;28;20058;-73
2023/03/08 05:02:52;;;;;;;28.65;14.02;;;5.90;99.90;;;;;;4971940;28;20202;-72
2023/03/08 05:05:18;;;;;;;25.13;11.88;;;5.80;99.90;;;;;;4970308;28;20034;-72
2023/03/08 05:07:44;;;;;;;23.90;11.82;;;5.80;99.90;;;;;;4966996;28;20046;-72
2023/03/08 05:10:10;;;;;;;25.52;12.23;;;5.70;99.90;;;;;;4970629;28;20539;-72
2023/03/08 05:12:36;;;;;;;27.98;14.18;;;5.80;99.90;;;;;;4968903;28;20095;-73
2023/03/08 05:15:02;;;;;;;22.75;12.70;;;5.90;99.90;;;;;;4967302;28;20058;-72
2023/03/08 05:17:27;;;;;;;27.88;13.05;;;5.80;99.90;;;;;;4974092;28;20038;-72
2023/03/08 05:19:53;;;;;;;22.08;12.25;;;5.90;99.90;;;;;;4969123;28;20043;-72
2023/03/08 05:22:18;;;;;;;22.60;12.15;;;6.10;99.90;;;;;;4968460;28;20026;-72
2023/03/08 05:24:45;;;;;;;28.17;14.05;;;6.10;99.90;;;;;;4977078;28;20030;-73
2023/03/08 05:27:10;;;;;;;27.58;14.40;;;6.10;99.90;;;;;;4969989;28;20624;-72
2023/03/08 05:29:36;;;;;;;26.67;13.63;;;6.10;99.90;;;;;;4970322;28;20115;-72
2023/03/08 05:32:02;;;;;;;18.73;11.57;;;6.00;99.90;;;;;;4969354;28;20116;-72
2023/03/08 05:34:28;;;;;;;26.50;11.75;;;5.80;99.90;;;;;;4970140;28;20042;-72
2023/03/08 05:36:54;;;;;;;23.08;11.35;;;5.60;99.90;;;;;;4971815;28;20038;-72
2023/03/08 05:39:20;;;;;;;23.67;12.93;;;5.40;99.90;;;;;;4986863;28;20092;-73
2023/03/08 05:41:46;;;;;;;22.15;10.60;;;5.50;99.90;;;;;;4968504;28;20122;-72
2023/03/08 05:44:11;;;;;;;28.58;12.00;;;5.50;99.90;;;;;;4968689;28;20118;-72
2023/03/08 05:46:37;;;;;;;23.00;11.85;;;5.50;99.90;;;;;;4974984;28;20096;-72
2023/03/08 05:49:04;;;;;;;25.02;13.48;;;5.50;99.90;;;;;;4973121;28;20061;-72
2023/03/08 05:51:30;;;;;;;21.27;12.32;;;5.60;99.90;;;;;;4967804;28;20366;-72
2023/03/08 05:53:55;;;;;;;23.83;13.88;;;5.50;99.90;;;;;;4969402;28;20033;-73
2023/03/08 05:56:22;;;;;;;26.75;13.52;;;5.70;99.90;;;;;;4970327;28;20474;-73
2023/03/08 05:58:49;;;;;;;21.13;12.88;;;5.60;99.90;;;;;;4968932;28;20125;-72
2023/03/08 06:01:18;;;;;;;26.42;13.63;;;5.50;99.90;;;;;;4966805;28;20466;-72
2023/03/08 06:03:46;;;;;;;26.52;13.20;;;5.50;99.90;;;;;;4967732;28;20037;-72
2023/03/08 06:06:12;;;;;;;24.02;13.52;;;5.50;99.90;;;;;;4969923;28;20033;-72
2023/03/08 06:08:38;;;;;;;28.85;13.50;;;5.50;99.90;;;;;;4967378;28;20113;-72
2023/03/08 06:11:05;;;;;;;24.73;12.18;;;5.60;99.90;;;;;;4973935;28;20042;-72
2023/03/08 06:13:30;;;;;;;20.00;11.13;;;5.80;99.90;;;;;;4968457;28;20073;-72
2023/03/08 06:15:58;;;;;;;23.73;12.55;;;5.90;99.90;;;;;;4969339;28;20062;-72
2023/03/08 06:18:25;;;;;;;23.77;11.57;;;6.00;99.90;;;;;;4976012;28;20041;-72
2023/03/08 06:21:11;;;;;;;25.05;11.98;;;6.00;99.90;;;;;;4974930;28;20141;-73
2023/03/08 06:23:37;;;;;;;26.67;11.63;;;6.00;99.90;;;;;;4967052;28;20039;-70
2023/03/08 06:26:05;;;;;;;23.13;10.80;;;6.20;99.90;;;;;;4973689;28;20109;-74
2023/03/08 06:28:31;;;;;;;23.83;11.38;;;6.10;99.90;;;;;;4970983;28;20562;-70
2023/03/08 06:30:57;;;;;;;20.08;12.10;;;6.10;99.90;;;;;;4968172;28;20101;-71
2023/03/08 06:33:28;;;;;;;21.13;11.60;;;6.20;99.90;;;;;;4965897;28;20069;-72
2023/03/08 06:36:05;;;;;;;25.73;12.20;;;6.20;99.90;;;;;;4971796;28;20050;-72
2023/03/08 06:38:32;;;;;;;24.30;12.52;;;6.30;99.90;;;;;;4967356;28;20359;-73
2023/03/08 06:40:58;;;;;;;26.55;14.13;;;6.30;99.90;;;;;;4972277;28;20584;-73
2023/03/08 06:43:24;;;;;;;26.73;14.07;;;6.40;99.90;;;;;;4967017;28;20093;-72
2023/03/08 06:45:50;;;;;;;27.08;14.20;;;6.50;99.90;;;;;;4968854;28;20070;-73
2023/03/08 06:48:16;;;;;;;25.95;15.02;;;6.60;99.90;;;;;;4965949;28;20058;-73
2023/03/08 06:50:42;;;;;;;30.23;13.80;;;6.60;99.90;;;;;;4963959;28;20108;-72
2023/03/08 06:53:08;;;;;;;27.55;11.88;;;6.60;99.90;;;;;;4964815;28;21551;-73
2023/03/08 06:55:38;;;;;;;20.10;10.35;;;6.50;99.90;;;;;;4969781;28;20047;-73
2023/03/08 06:58:04;;;;;;;21.83;12.35;;;6.20;99.90;;;;;;4969670;28;20074;-73
2023/03/08 07:00:30;;;;;;;20.50;12.02;;;6.10;99.90;;;;;;4966014;28;20121;-73
2023/03/08 07:02:56;;;;;;;22.40;12.10;;;6.10;99.90;;;;;;4972842;28;20133;-74
2023/03/08 07:05:21;;;;;;;26.20;12.88;;;6.20;99.90;;;;;;4969080;28;20470;-73
2023/03/08 07:07:47;;;;;;;21.95;12.43;;;6.20;99.90;;;;;;4966276;28;20078;-73
2023/03/08 07:10:15;;;;;;;28.00;11.93;;;6.20;99.90;;;;;;4970227;28;20045;-74
2023/03/08 07:12:42;;;;;;;24.10;12.30;;;6.30;99.90;;;;;;4967586;28;20126;-72
2023/03/08 07:15:13;;;;;;;20.05;11.73;;;6.50;99.90;;;;;;4969007;28;20037;-73
2023/03/08 07:17:40;;;;;;;23.83;13.10;;;6.50;99.90;;;;;;4966250;28;20047;-73
2023/03/08 07:20:07;;;;;;;24.02;12.25;;;6.50;99.90;;;;;;4970404;28;20046;-73
2023/03/08 07:22:33;;;;;;;17.35;10.57;;;6.70;99.90;;;;;;4964533;28;20042;-73
2023/03/08 07:24:58;;;;;;;31.30;14.82;;;6.80;99.90;;;;;;4963884;28;20049;-73
2023/03/08 07:27:24;;;;;;;27.30;13.75;;;6.80;99.90;;;;;;4975024;28;20035;-73
2023/03/08 07:29:50;;;;;;;31.58;14.95;;;6.80;99.90;;;;;;4968990;28;20035;-73
2023/03/08 07:32:16;;;;;;;24.40;13.52;;;6.90;99.90;;;;;;4969064;28;20144;-73
2023/03/08 07:34:41;;;;;;;27.23;12.95;;;6.90;99.90;;;;;;4965098;28;20066;-73
2023/03/08 07:37:16;;;;;;;21.15;12.27;;;7.10;99.90;;;;;;4976115;28;20042;-73
2023/03/08 07:39:42;;;;;;;18.25;11.05;;;7.10;99.90;;;;;;4962192;28;20045;-73
2023/03/08 07:42:09;;;;;;;21.98;11.57;;;7.10;99.90;;;;;;4976203;28;20026;-73
2023/03/08 07:44:38;;;;;;;23.10;11.70;;;7.10;99.90;;;;;;4973723;28;20030;-73
2023/03/08 07:47:07;;;;;;;25.17;13.02;;;7.20;99.90;;;;;;4974024;28;20070;-73
2023/03/08 07:49:32;;;;;;;26.52;12.60;;;7.20;99.90;;;;;;4970492;28;22880;-73
2023/03/08 07:51:58;;;;;;;25.75;12.88;;;6.80;99.90;;;;;;4968483;28;20378;-73
2023/03/08 07:54:24;;;;;;;23.67;12.82;;;6.80;99.90;;;;;;4967210;28;20167;-73
2023/03/08 07:56:54;;;;;;;25.42;13.93;;;6.80;99.90;;;;;;4968600;28;20081;-75
2023/03/08 07:59:21;;;;;;;24.08;13.88;;;7.00;99.90;;;;;;4973612;28;20050;-73
2023/03/08 08:01:47;;;;;;;23.10;13.10;;;7.10;99.90;;;;;;4967472;28;20034;-73
2023/03/08 08:04:13;;;;;;;24.63;13.77;;;7.30;99.90;;;;;;4970545;28;20492;-73
2023/03/08 08:06:39;;;;;;;22.45;12.45;;;7.40;99.90;;;;;;4968108;28;20027;-72
2023/03/08 08:09:07;;;;;;;30.45;13.95;;;7.50;99.90;;;;;;4969207;28;20795;-73
2023/03/08 08:11:33;;;;;;;25.23;12.90;;;7.70;99.90;;;;;;4960879;28;20194;-73
2023/03/08 08:13:59;;;;;;;25.98;14.35;;;7.90;99.90;;;;;;4968630;28;20030;-73
2023/03/08 08:16:25;;;;;;;37.45;16.92;;;8.10;99.90;;;;;;4963991;28;20097;-73
2023/03/08 08:18:52;;;;;;;28.20;13.88;;;8.10;99.90;;;;;;4960462;28;20039;-73
2023/03/08 08:21:18;;;;;;;29.60;14.07;;;8.10;99.90;;;;;;4962848;28;20045;-73
2023/03/08 08:23:44;;;;;;;21.25;10.68;;;7.90;99.90;;;;;;4971262;28;20035;-73
2023/03/08 08:26:16;;;;;;;22.92;12.63;;;8.00;99.90;;;;;;4961685;28;20045;-73
2023/03/08 08:28:43;;;;;;;26.80;12.98;;;7.90;99.70;;;;;;4967722;28;20069;-73
2023/03/08 08:31:12;;;;;;;24.33;13.68;;;7.90;99.90;;;;;;4964118;28;20954;-73
2023/03/08 08:33:37;;;;;;;27.58;13.57;;;7.90;99.90;;;;;;4976161;28;20048;-73
2023/03/08 08:36:05;;;;;;;24.77;13.45;;;7.90;99.90;;;;;;4976828;28;20490;-73
2023/03/08 08:38:31;;;;;;;31.35;15.18;;;7.90;99.90;;;;;;4974172;28;20433;-76
2023/03/08 08:41:01;;;;;;;23.30;13.98;;;7.80;99.90;;;;;;4964721;28;20035;-75
2023/03/08 08:43:27;;;;;;;26.67;14.23;;;7.70;99.90;;;;;;4972224;28;20044;-74
2023/03/08 08:45:55;;;;;;;21.60;14.18;;;7.80;99.90;;;;;;4973189;28;20030;-74
2023/03/08 08:48:21;;;;;;;26.13;14.25;;;7.80;99.90;;;;;;4972355;28;20027;-75
2023/03/08 08:50:47;;;;;;;25.02;14.15;;;7.90;99.90;;;;;;4968080;28;20532;-74
2023/03/08 08:53:13;;;;;;;29.13;13.82;;;8.00;99.70;;;;;;4966069;28;20032;-74
2023/03/08 08:55:38;;;;;;;28.25;12.73;;;8.10;99.50;;;;;;4977884;28;20054;-74
2023/03/08 08:58:05;;;;;;;30.50;14.30;;;8.20;99.50;;;;;;4973999;28;20042;-74
2023/03/08 09:00:32;;;;;;;27.67;13.00;;;8.30;99.40;;;;;;4975408;28;20054;-74
2023/03/08 09:02:59;;;;;;;26.95;14.52;;;8.50;99.30;;;;;;4975488;28;20030;-74
2023/03/08 09:05:25;;;;;;;25.00;14.32;;;8.70;98.90;;;;;;4976861;28;20599;-74
2023/03/08 09:07:57;;;;;;;30.88;13.40;;;8.60;98.70;;;;;;4980061;28;20037;-74
2023/03/08 09:10:24;;;;;;;42.72;14.82;;;8.90;98.80;;;;;;4980505;28;20035;-74
2023/03/08 09:12:49;;;;;;;27.85;13.82;;;9.00;98.50;;;;;;4977341;28;20050;-74
2023/03/08 09:15:15;;;;;;;22.83;13.73;;;9.00;98.70;;;;;;4973877;28;20062;-75
2023/03/08 09:17:41;;;;;;;21.85;12.85;;;9.10;98.50;;;;;;4970692;28;20481;-74
2023/03/08 09:20:10;;;;;;;25.30;14.57;;;9.00;98.60;;;;;;4978390;28;20038;-74
2023/03/08 09:22:37;;;;;;;25.90;13.32;;;9.10;98.80;;;;;;4969811;28;20627;-75
2023/03/08 09:25:04;;;;;;;27.67;13.07;;;9.10;98.40;;;;;;4983590;28;20042;-75
2023/03/08 09:27:30;;;;;;;28.60;15.05;;;8.90;98.40;;;;;;4982889;28;20061;-74
2023/03/08 09:29:56;;;;;;;22.95;13.10;;;9.00;98.40;;;;;;4978162;28;20572;-74
2023/03/08 09:32:22;;;;;;;24.60;14.00;;;9.00;98.60;;;;;;4976775;28;20030;-74
2023/03/08 09:34:47;;;;;;;22.58;13.85;;;9.10;98.40;;;;;;4970243;28;20486;-74
2023/03/08 09:37:13;;;;;;;23.42;14.15;;;9.10;98.40;;;;;;4979556;28;20604;-74
2023/03/08 09:39:39;;;;;;;22.50;14.18;;;9.10;98.50;;;;;;4970959;28;20137;-74
2023/03/08 09:42:13;;;;;;;23.98;13.63;;;9.10;97.90;;;;;;4966661;28;20046;-74
2023/03/08 09:44:49;;;;;;;25.33;14.95;;;9.20;98.20;;;;;;4965099;28;20042;-74
2023/03/08 09:47:25;;;;;;;29.60;14.15;;;9.10;97.80;;;;;;4965936;28;20042;-74
2023/03/08 09:49:54;;;;;;;22.48;13.70;;;9.10;97.80;;;;;;4967618;28;20101;-74
2023/03/08 09:52:31;;;;;;;24.60;14.95;;;9.10;97.70;;;;;;4985398;28;20117;-74
2023/03/08 09:55:03;;;;;;;26.80;14.50;;;9.30;97.70;;;;;;4973350;28;20105;-74
2023/03/08 09:57:35;;;;;;;31.60;13.55;;;9.40;97.60;;;;;;4975349;28;20085;-74
2023/03/08 10:00:10;;;;;;;25.10;14.05;;;9.50;97.60;;;;;;4975861;28;20031;-73
2023/03/08 10:02:57;;;;;;;25.45;14.60;;;9.60;97.50;;;;;;4972512;28;20048;-75
2023/03/08 10:05:39;;;;;;;23.45;14.45;;;9.70;97.50;;;;;;4974867;28;20485;-74
2023/03/08 10:08:20;;;;;;;34.40;14.23;;;9.70;97.40;;;;;;4978014;28;20050;-74
2023/03/08 10:10:59;;;;;;;24.25;12.98;;;9.80;97.50;;;;;;4966448;28;20031;-74
2023/03/08 10:13:30;;;;;;;32.40;13.25;;;9.90;97.30;;;;;;4966106;28;20046;-74
2023/03/08 10:16:27;;;;;;;25.27;13.15;;;10.00;97.40;;;;;;4967331;28;20027;-74
2023/03/08 10:19:11;;;;;;;25.08;13.13;;;10.00;96.70;;;;;;4960480;28;20406;-74
2023/03/08 10:21:39;;;;;;;23.17;12.68;;;10.10;96.70;;;;;;4967137;28;20093;-74
2023/03/08 10:24:54;;;;;;;28.80;15.05;;;10.00;96.60;;;;;;4970508;28;20038;-74
2023/03/08 10:27:33;;;;;;;21.08;13.15;;;10.10;96.60;;;;;;4954615;28;20699;-75
2023/03/08 10:30:09;;;;;;;23.30;13.40;;;10.20;96.60;;;;;;4965389;28;20066;-74
2023/03/08 10:32:52;;;;;;;20.80;13.75;;;10.30;96.40;;;;;;4966049;28;20054;-74
2023/03/08 10:35:30;;;;;;;25.40;13.27;;;10.50;96.40;;;;;;4967681;28;20571;-74
2023/03/08 10:37:55;;;;;;;23.23;14.02;;;10.70;96.00;;;;;;4966952;28;20058;-74
2023/03/08 10:40:21;;;;;;;29.05;14.73;;;10.80;96.00;;;;;;4965649;28;20042;-75
2023/03/08 10:43:04;;;;;;;23.85;13.15;;;11.00;95.90;;;;;;4974535;28;20035;-74
2023/03/08 10:45:30;;;;;;;28.05;13.55;;;11.20;95.80;;;;;;4972927;28;20067;-74
2023/03/08 10:48:04;;;;;;;23.45;13.07;;;11.10;95.90;;;;;;4971914;28;20030;-74
2023/03/08 10:50:35;;;;;;;28.10;13.75;;;11.00;95.50;;;;;;4977311;28;20412;-74
2023/03/08 10:53:17;;;;;;;26.25;12.38;;;11.30;96.20;;;;;;4972259;28;20023;-74
2023/03/08 10:55:51;;;;;;;29.58;13.00;;;11.50;95.40;;;;;;4974345;28;20034;-74
2023/03/08 10:58:26;;;;;;;21.55;11.35;;;11.50;95.40;;;;;;4972681;28;20057;-74
2023/03/08 11:00:54;;;;;;;24.73;14.20;;;11.60;95.30;;;;;;4969957;28;20046;-74
2023/03/08 11:03:23;;;;;;;24.20;12.65;;;11.60;95.00;;;;;;4971691;28;20030;-75
2023/03/08 11:05:52;;;;;;;21.13;12.15;;;11.70;95.40;;;;;;4968846;28;20480;-75
2023/03/08 11:08:21;;;;;;;21.60;10.65;;;11.60;94.70;;;;;;4964647;28;21624;-74
2023/03/08 11:10:58;;;;;;;28.98;11.35;;;11.70;94.90;;;;;;4972323;28;20755;-75
2023/03/08 11:13:30;;;;;;;22.55;10.52;;;12.00;95.00;;;;;;4972476;28;20032;-72
2023/03/08 11:16:10;;;;;;;20.63;9.43;;;12.10;94.70;;;;;;4975815;28;20478;-73
2023/03/08 11:18:57;;;;;;;19.00;10.32;;;12.30;94.50;;;;;;4978416;28;20077;-74
2023/03/08 11:21:31;;;;;;;16.63;8.75;;;12.50;95.10;;;;;;4985011;28;20392;-74
2023/03/08 11:24:08;;;;;;;17.00;9.23;;;12.60;94.50;;;;;;4987525;28;20038;-73
2023/03/08 11:26:57;;;;;;;20.25;9.30;;;12.70;94.70;;;;;;4987529;28;20409;-73
2023/03/08 11:29:51;;;;;;;14.55;8.38;;;13.10;94.60;;;;;;4969403;28;20065;-73
2023/03/08 11:32:52;;;;;;;21.65;9.68;;;13.40;94.00;;;;;;4970331;28;20046;-74
2023/03/08 11:35:28;;;;;;;21.17;8.95;;;13.80;93.60;;;;;;4984211;28;20038;-74
2023/03/08 11:38:05;;;;;;;21.55;9.82;;;13.70;93.20;;;;;;4991689;28;20034;-76
2023/03/08 11:40:36;;;;;;;18.30;8.95;;;13.80;93.30;;;;;;4996933;28;20409;-76
2023/03/08 11:43:24;;;;;;;20.52;8.60;;;14.00;93.10;;;;;;4997772;28;20088;-77
2023/03/08 11:45:59;;;;;;;19.48;9.05;;;14.10;93.40;;;;;;4996197;28;20105;-76
2023/03/08 11:48:47;;;;;;;15.45;7.57;;;14.00;92.80;;;;;;5000297;28;20100;-76
2023/03/08 11:51:21;;;;;;;14.52;8.60;;;14.10;92.50;;;;;;4991834;28;20462;-74
2023/03/08 11:54:13;;;;;;;15.07;8.27;;;14.20;92.70;;;;;;4987272;28;20416;-76
2023/03/08 11:56:53;;;;;;;19.95;8.68;;;14.20;92.50;;;;;;4968738;28;20416;-73
2023/03/08 11:59:24;;;;;;;14.27;7.45;;;14.10;92.00;;;;;;4986518;28;20046;-76
2023/03/08 12:02:04;;;;;;;20.40;7.75;;;14.20;92.00;;;;;;4984881;28;20033;-75
2023/03/08 12:05:02;;;;;;;16.73;8.95;;;14.20;92.30;;;;;;4983279;28;20034;-76
2023/03/08 12:07:39;;;;;;;17.00;7.45;;;14.50;92.00;;;;;;4948204;28;20055;-76
2023/03/08 12:10:19;;;;;;;20.67;8.73;;;14.70;91.60;;;;;;4985024;28;20037;-75
2023/03/08 12:12:54;;;;;;;14.35;8.27;;;14.60;91.00;;;;;;4969977;28;20038;-74
2023/03/08 12:15:32;;;;;;;17.95;7.88;;;14.60;91.30;;;;;;4982526;28;20026;-73
2023/03/08 12:18:23;;;;;;;20.38;8.65;;;14.70;91.90;;;;;;4967816;28;20035;-77
2023/03/08 12:20:53;;;;;;;15.75;6.88;;;15.00;91.30;;;;;;4967278;28;20042;-76
2023/03/08 12:23:29;;;;;;;13.48;7.65;;;14.90;91.20;;;;;;4972731;28;20060;-77
2023/03/08 12:26:24;;;;;;;17.35;6.35;;;15.00;91.40;;;;;;4968622;28;20045;-78
2023/03/08 12:28:57;;;;;;;15.25;7.13;;;15.20;90.60;;;;;;4972630;28;20031;-77
2023/03/08 12:31:36;;;;;;;11.52;6.57;;;15.20;89.80;;;;;;4966400;28;20045;-76
2023/03/08 12:34:24;;;;;;;15.65;6.60;;;15.40;90.30;;;;;;4967182;28;20112;-75
2023/03/08 12:36:50;;;;;;;19.23;6.80;;;15.30;90.00;;;;;;4968289;28;20035;-76
2023/03/08 12:39:41;;;;;;;17.40;7.80;;;15.30;89.30;;;;;;4968541;28;20406;-75
2023/03/08 12:42:10;;;;;;;15.48;5.93;;;15.40;90.10;;;;;;4968003;28;20050;-73
2023/03/08 12:44:37;;;;;;;19.75;6.85;;;15.50;88.50;;;;;;4969554;28;20168;-74
2023/03/08 12:47:29;;;;;;;21.25;6.68;;;15.40;88.30;;;;;;4975444;28;20125;-73